Time;durP1;ratioP1;P1;durP2;ratioP2;P2;SDS_P1;SDS_P2;PMS_P1;PMS_P2;Temp;Humidity;BMP_temperature;BMP_pressure;BME280_temperature;BME280_humidity;BME280_pressure;Samples;Min_cycle;Max_cycle;Signal;HPM_P1;HPM_P2
2022/01/29 02:14:26;;;;;;;8.27;4.57;;;;;;;;;;5921734;24;20439;-76
2022/01/29 02:16:57;;;;;;;12.13;5.57;;;;;;;;;;5921065;24;20036;-76
2022/01/29 02:19:27;;;;;;;7.47;4.00;;;;;;;;;;5920942;24;20069;-76
2022/01/29 02:22:31;;;;;;;10.07;4.22;;;;;;;;;;5921062;24;20522;-76
2022/01/29 02:25:37;;;;;;;8.15;3.65;;;;;;;;;;5920956;24;20085;-76
2022/01/29 02:28:22;;;;;;;8.70;5.00;;;;;;;;;;5921114;24;20091;-76
2022/01/29 02:54:38;;;;;;;7.05;4.32;;;;;;;;;;5915867;24;20032;-76
2022/01/29 03:17:00;;;;;;;7.20;4.18;;;;;;;;;;5865121;24;20041;-76
2022/01/29 03:28:06;;;;;;;10.90;3.95;;;;;;;;;;5835081;24;20121;-76
2022/01/29 03:33:37;;;;;;;9.68;4.10;;;;;;;;;;5862604;24;19993;-76
2022/01/29 03:36:20;;;;;;;6.88;3.75;;;;;;;;;;5870337;24;20417;-76
2022/01/29 03:41:48;;;;;;;9.23;4.10;;;;;;;;;;5945166;23;20028;-76
2022/01/29 03:44:17;;;;;;;7.90;4.10;;;;;;;;;;5947844;24;20103;-76
2022/01/29 03:46:45;;;;;;;7.63;3.88;;;;;;;;;;5948323;24;20119;-76
2022/01/29 03:49:11;;;;;;;6.78;3.40;;;;;;;;;;5948377;24;20056;-76
2022/01/29 03:51:38;;;;;;;7.57;4.05;;;;;;;;;;5947837;24;20499;-76
2022/01/29 03:54:05;;;;;;;10.95;3.55;;;;;;;;;;5947991;24;20017;-76
2022/01/29 03:56:31;;;;;;;9.20;4.13;;;;;;;;;;5948163;24;20052;-76
2022/01/29 03:58:58;;;;;;;5.90;2.83;;;;;;;;;;5967225;23;20066;-76
2022/01/29 04:01:24;;;;;;;6.43;2.78;;;;;;;;;;5975523;24;20052;-76
2022/01/29 04:03:52;;;;;;;7.20;3.13;;;;;;;;;;5976198;24;20059;-76
2022/01/29 04:06:19;;;;;;;6.30;3.50;;;;;;;;;;5976135;24;20028;-76
2022/01/29 04:08:45;;;;;;;6.32;2.67;;;;;;;;;;5977586;24;20068;-77
2022/01/29 04:11:13;;;;;;;9.00;3.47;;;;;;;;;;5977942;23;20121;-76
2022/01/29 04:13:43;;;;;;;10.02;3.90;;;;;;;;;;5978123;24;20020;-76
2022/01/29 04:16:09;;;;;;;6.45;3.30;;;;;;;;;;5978216;24;20478;-78
2022/01/29 04:18:36;;;;;;;6.45;3.00;;;;;;;;;;5979012;24;20024;-77
2022/01/29 04:21:05;;;;;;;5.38;2.88;;;;;;;;;;5977866;24;20131;-76
2022/01/29 04:23:32;;;;;;;8.48;3.30;;;;;;;;;;5977538;24;20055;-77
2022/01/29 04:26:00;;;;;;;6.43;2.75;;;;;;;;;;5977661;24;20048;-76
2022/01/29 04:28:30;;;;;;;7.00;2.70;;;;;;;;;;5977815;24;20020;-76
2022/01/29 04:31:00;;;;;;;6.97;3.60;;;;;;;;;;5977759;24;20021;-76
2022/01/29 04:33:29;;;;;;;4.68;2.78;;;;;;;;;;5977191;24;20080;-76
2022/01/29 04:35:57;;;;;;;12.18;3.95;;;;;;;;;;5976746;23;20024;-76
2022/01/29 04:38:26;;;;;;;5.90;3.17;;;;;;;;;;5977038;24;20162;-76
2022/01/29 04:40:53;;;;;;;8.80;4.28;;;;;;;;;;5977869;24;20055;-76
2022/01/29 04:43:19;;;;;;;12.18;3.60;;;;;;;;;;5977638;24;20051;-76
2022/01/29 04:45:46;;;;;;;6.22;3.17;;;;;;;;;;5977498;24;20043;-77
2022/01/29 04:48:12;;;;;;;6.18;3.22;;;;;;;;;;5977570;24;20056;-76
2022/01/29 04:50:39;;;;;;;7.03;2.60;;;;;;;;;;5977660;24;20020;-76
2022/01/29 04:53:06;;;;;;;4.18;3.00;;;;;;;;;;5976808;23;20063;-77
2022/01/29 04:55:36;;;;;;;5.18;2.55;;;;;;;;;;5977444;24;20067;-76
2022/01/29 04:58:04;;;;;;;5.85;3.17;;;;;;;;;;5976363;23;20462;-76
2022/01/29 05:00:31;;;;;;;9.52;3.33;;;;;;;;;;5976795;24;20538;-76
2022/01/29 05:03:07;;;;;;;6.88;3.72;;;;;;;;;;5977073;24;20024;-76
2022/01/29 05:05:33;;;;;;;5.93;3.08;;;;;;;;;;5977272;24;20024;-76
2022/01/29 05:08:00;;;;;;;7.18;3.45;;;;;;;;;;5977627;24;20477;-76
2022/01/29 05:10:26;;;;;;;8.07;3.15;;;;;;;;;;5977138;24;20024;-76
2022/01/29 05:12:59;;;;;;;8.82;3.25;;;;;;;;;;5976721;24;20020;-76
2022/01/29 05:15:33;;;;;;;6.03;3.45;;;;;;;;;;5976662;24;20016;-77
2022/01/29 05:28:58;;;;;;;8.48;3.35;;;;;;;;;;5976982;24;20068;-76
2022/01/29 05:31:24;;;;;;;7.65;3.05;;;;;;;;;;5976732;24;20067;-76
2022/01/29 05:33:51;;;;;;;8.57;3.33;;;;;;;;;;5976874;24;20155;-76
2022/01/29 05:36:17;;;;;;;8.07;3.22;;;;;;;;;;5977060;24;20059;-76
2022/01/29 05:38:44;;;;;;;6.57;3.20;;;;;;;;;;5976380;24;20039;-76
2022/01/29 05:41:11;;;;;;;9.18;3.30;;;;;;;;;;5976511;24;20398;-76
2022/01/29 05:43:37;;;;;;;7.53;3.67;;;;;;;;;;5976483;24;20052;-76
2022/01/29 05:46:05;;;;;;;10.02;3.33;;;;;;;;;;5975359;24;20027;-76
2022/01/29 05:48:31;;;;;;;8.18;3.22;;;;;;;;;;5975571;24;20058;-77
2022/01/29 05:50:58;;;;;;;12.05;4.30;;;;;;;;;;5976244;24;20068;-76
2022/01/29 05:53:25;;;;;;;6.35;3.72;;;;;;;;;;5975064;24;20020;-76
2022/01/29 05:55:51;;;;;;;6.85;3.58;;;;;;;;;;5975884;24;20048;-76
2022/01/29 05:58:18;;;;;;;8.63;4.40;;;;;;;;;;5975102;23;20066;-77
2022/01/29 06:00:44;;;;;;;8.35;4.80;;;;;;;;;;5975187;24;20446;-77
2022/01/29 06:03:12;;;;;;;10.82;3.58;;;;;;;;;;5975859;24;20053;-77
2022/01/29 06:05:39;;;;;;;10.60;3.80;;;;;;;;;;5975703;24;20051;-76
2022/01/29 06:08:06;;;;;;;6.78;3.55;;;;;;;;;;5975846;24;20051;-76
2022/01/29 06:10:33;;;;;;;15.15;4.60;;;;;;;;;;5976185;24;20103;-76
2022/01/29 06:13:01;;;;;;;7.65;3.38;;;;;;;;;;5975457;24;20051;-76
2022/01/29 06:15:27;;;;;;;6.40;3.42;;;;;;;;;;5975332;24;20044;-76
2022/01/29 06:17:55;;;;;;;7.38;4.25;;;;;;;;;;5975919;24;20055;-76
2022/01/29 06:20:23;;;;;;;6.57;3.58;;;;;;;;;;5975757;24;20028;-77
2022/01/29 06:22:49;;;;;;;7.55;4.10;;;;;;;;;;5975399;24;20089;-76
2022/01/29 06:25:16;;;;;;;7.13;4.00;;;;;;;;;;5975398;24;20882;-77
2022/01/29 06:27:43;;;;;;;8.05;3.80;;;;;;;;;;5975939;24;20056;-77
2022/01/29 06:30:10;;;;;;;7.93;4.65;;;;;;;;;;5977347;24;20462;-76
2022/01/29 06:32:36;;;;;;;7.68;3.92;;;;;;;;;;5978269;24;20056;-77
2022/01/29 06:35:03;;;;;;;7.15;3.75;;;;;;;;;;5978553;24;20374;-77
2022/01/29 06:37:31;;;;;;;9.07;4.93;;;;;;;;;;5979288;24;20020;-76
2022/01/29 06:39:57;;;;;;;7.90;4.32;;;;;;;;;;5978413;24;20092;-77
2022/01/29 06:42:24;;;;;;;11.70;4.70;;;;;;;;;;5977277;24;20055;-77
2022/01/29 06:44:50;;;;;;;7.82;3.97;;;;;;;;;;5977038;24;20414;-77
2022/01/29 06:47:17;;;;;;;9.38;5.07;;;;;;;;;;5977198;24;20063;-77
2022/01/29 06:49:43;;;;;;;10.43;4.32;;;;;;;;;;5975940;24;20071;-77
2022/01/29 06:52:10;;;;;;;8.90;5.20;;;;;;;;;;5976380;24;20055;-77
2022/01/29 06:54:38;;;;;;;8.07;4.38;;;;;;;;;;5985239;23;20054;-77
2022/01/29 06:57:05;;;;;;;6.68;3.38;;;;;;;;;;6062363;23;20058;-77
2022/01/29 06:59:31;;;;;;;9.63;4.38;;;;;;;;;;6061533;23;20639;-77
2022/01/29 07:01:58;;;;;;;9.88;4.85;;;;;;;;;;6060763;23;20070;-77
2022/01/29 07:04:24;;;;;;;6.47;4.13;;;;;;;;;;6061695;23;20050;-77
2022/01/29 07:06:51;;;;;;;8.82;5.18;;;;;;;;;;6061967;23;20074;-78
2022/01/29 07:09:17;;;;;;;6.90;4.20;;;;;;;;;;6061334;23;20051;-77
2022/01/29 07:11:46;;;;;;;8.48;4.53;;;;;;;;;;6064010;23;20018;-78
2022/01/29 07:14:17;;;;;;;8.27;4.15;;;;;;;;;;6141472;23;20025;-77
2022/01/29 07:16:44;;;;;;;8.63;4.72;;;;;;;;;;6181432;23;20048;-77
2022/01/29 07:19:11;;;;;;;6.90;4.18;;;;;;;;;;6182461;23;20028;-77
2022/01/29 07:21:37;;;;;;;9.10;4.30;;;;;;;;;;6181488;23;20024;-77
2022/01/29 07:24:04;;;;;;;8.45;4.40;;;;;;;;;;6181896;23;20079;-77
2022/01/29 07:26:31;;;;;;;9.05;4.65;;;;;;;;;;6181297;23;20048;-77
2022/01/29 07:28:59;;;;;;;9.23;4.95;;;;;;;;;;6182456;23;20016;-78
2022/01/29 07:31:27;;;;;;;10.93;5.10;;;;;;;;;;6181952;23;20021;-78
2022/01/29 07:33:54;;;;;;;9.00;4.10;;;;;;;;;;6183233;23;20071;-77
2022/01/29 07:36:20;;;;;;;7.28;3.72;;;;;;;;;;6182743;23;20060;-78
2022/01/29 07:38:47;;;;;;;8.65;4.63;;;;;;;;;;6184453;23;20021;-78
2022/01/29 07:41:13;;;;;;;10.32;5.10;;;;;;;;;;6183658;23;20021;-78
2022/01/29 07:43:40;;;;;;;12.82;5.53;;;;;;;;;;6182071;23;20024;-77
2022/01/29 07:46:08;;;;;;;10.23;4.57;;;;;;;;;;6182888;23;20523;-78
2022/01/29 07:48:34;;;;;;;11.40;5.88;;;;;;;;;;6185293;23;20108;-78
2022/01/29 07:51:01;;;;;;;13.68;6.25;;;;;;;;;;6182674;23;20064;-80
2022/01/29 07:53:27;;;;;;;13.95;6.55;;;;;;;;;;6182213;23;20021;-79
2022/01/29 07:55:54;;;;;;;12.98;7.25;;;;;;;;;;6183833;23;20461;-78
2022/01/29 07:58:21;;;;;;;12.75;6.97;;;;;;;;;;6183733;23;20053;-77
2022/01/29 08:00:50;;;;;;;14.43;7.43;;;;;;;;;;6184052;23;20374;-79
2022/01/29 08:03:18;;;;;;;13.43;7.88;;;;;;;;;;6183354;23;20346;-79
2022/01/29 08:05:44;;;;;;;14.55;7.28;;;;;;;;;;6183635;23;20032;-80
2022/01/29 08:08:11;;;;;;;15.02;6.80;;;;;;;;;;6183911;23;20021;-79
2022/01/29 08:10:37;;;;;;;17.38;7.75;;;;;;;;;;6183978;23;20056;-77
2022/01/29 08:13:04;;;;;;;13.95;8.32;;;;;;;;;;6183069;23;20381;-79
2022/01/29 08:15:31;;;;;;;13.75;7.38;;;;;;;;;;6181282;23;20028;-78
2022/01/29 08:17:59;;;;;;;16.88;7.38;;;;;;;;;;6183062;23;20469;-80
2022/01/29 08:20:27;;;;;;;14.82;7.88;;;;;;;;;;6182316;23;20021;-78
2022/01/29 08:30:39;;;;;;;20.38;10.15;;;;;;;;;;5997697;23;20030;-77
2022/01/29 09:16:40;;;;;;;11.85;6.00;;;;;;;;;;5984434;24;20058;-78
2022/01/29 09:22:33;;;;;;;13.80;5.50;;;;;;;;;;5791232;24;20346;-77
2022/01/29 09:25:02;;;;;;;15.95;6.60;;;;;;;;;;5836295;24;20023;-77
2022/01/29 09:27:34;;;;;;;10.65;6.25;;;;;;;;;;5862258;24;20443;-77
2022/01/29 09:30:07;;;;;;;11.43;6.35;;;;;;;;;;5868805;24;20026;-77
2022/01/29 09:39:18;;;;;;;10.60;5.43;;;;;;;;;;5911294;24;20020;-77
2022/01/29 09:41:45;;;;;;;11.88;5.45;;;;;;;;;;5977401;24;20023;-78
2022/01/29 09:44:19;;;;;;;10.88;5.50;;;;;;;;;;5976738;24;20027;-77
2022/01/29 09:46:46;;;;;;;11.63;5.97;;;;;;;;;;5975733;24;20016;-76
2022/01/29 09:49:15;;;;;;;9.77;4.93;;;;;;;;;;5975748;24;20031;-77
2022/01/29 09:51:42;;;;;;;9.77;5.70;;;;;;;;;;5976566;24;20545;-78
2022/01/29 09:54:08;;;;;;;10.32;5.22;;;;;;;;;;6054998;23;20356;-79
2022/01/29 09:56:35;;;;;;;12.77;5.72;;;;;;;;;;6066633;23;20062;-78
2022/01/29 09:59:02;;;;;;;10.45;5.32;;;;;;;;;;6105969;23;20022;-78
2022/01/29 10:01:29;;;;;;;10.40;4.82;;;;;;;;;;6157755;23;20018;-79
2022/01/29 10:04:10;;;;;;;9.60;4.45;;;;;;;;;;6162263;23;20021;-80
2022/01/29 10:06:42;;;;;;;9.25;5.15;;;;;;;;;;6159152;23;20068;-78
2022/01/29 10:09:11;;;;;;;9.48;4.80;;;;;;;;;;6154448;23;20018;-77
2022/01/29 10:11:38;;;;;;;8.52;5.18;;;;;;;;;;6176879;23;20021;-78
2022/01/29 10:14:06;;;;;;;10.05;5.47;;;;;;;;;;6185157;23;20052;-78
2022/01/29 10:16:33;;;;;;;10.05;5.00;;;;;;;;;;6183985;23;20454;-78
2022/01/29 10:19:02;;;;;;;12.70;5.05;;;;;;;;;;6184026;23;20193;-78
2022/01/29 10:21:32;;;;;;;11.93;5.57;;;;;;;;;;6184243;23;20091;-78
2022/01/29 10:24:04;;;;;;;8.73;5.28;;;;;;;;;;6186527;23;20044;-78
2022/01/29 10:26:33;;;;;;;10.93;6.05;;;;;;;;;;6187097;23;20013;-78
2022/01/29 10:28:59;;;;;;;10.30;5.00;;;;;;;;;;6187939;23;20103;-78
2022/01/29 10:31:39;;;;;;;9.48;4.65;;;;;;;;;;6186009;23;20058;-80
2022/01/29 10:34:22;;;;;;;11.77;5.03;;;;;;;;;;6186166;23;20017;-79
2022/01/29 10:37:13;;;;;;;13.30;5.65;;;;;;;;;;6187692;23;20024;-78
2022/01/29 10:39:42;;;;;;;11.45;5.25;;;;;;;;;;6185294;23;20021;-78
2022/01/29 10:42:17;;;;;;;8.95;4.05;;;;;;;;;;6186830;23;20017;-79
2022/01/29 10:44:45;;;;;;;11.10;4.88;;;;;;;;;;6186657;23;20021;-78
2022/01/29 10:47:17;;;;;;;8.77;4.15;;;;;;;;;;6187194;23;20601;-79
2022/01/29 10:49:52;;;;;;;11.15;4.63;;;;;;;;;;6185163;23;20025;-78
2022/01/29 10:52:18;;;;;;;9.43;4.50;;;;;;;;;;6184681;23;20025;-78
2022/01/29 10:54:49;;;;;;;10.52;4.20;;;;;;;;;;6184753;23;20028;-78
2022/01/29 10:57:17;;;;;;;9.35;4.45;;;;;;;;;;6183715;23;20013;-78
2022/01/29 10:59:47;;;;;;;7.93;4.32;;;;;;;;;;6184925;23;20044;-78
2022/01/29 11:02:15;;;;;;;11.77;5.15;;;;;;;;;;6183906;23;20065;-78
2022/01/29 11:04:42;;;;;;;8.05;4.53;;;;;;;;;;6184998;23;20089;-78
2022/01/29 11:07:14;;;;;;;7.45;4.25;;;;;;;;;;6186091;23;20079;-79
2022/01/29 11:09:43;;;;;;;9.27;4.68;;;;;;;;;;6184474;23;20019;-78
2022/01/29 11:12:12;;;;;;;9.73;3.70;;;;;;;;;;6185405;23;20017;-78
2022/01/29 11:14:41;;;;;;;9.52;4.70;;;;;;;;;;6185247;23;20040;-79
2022/01/29 11:17:09;;;;;;;8.80;4.68;;;;;;;;;;6187324;23;20017;-79
2022/01/29 11:19:36;;;;;;;8.07;4.60;;;;;;;;;;6184366;23;20096;-77
2022/01/29 11:22:05;;;;;;;5.85;3.92;;;;;;;;;;6181500;23;20051;-77
2022/01/29 11:24:32;;;;;;;10.73;4.90;;;;;;;;;;6181413;23;20056;-77
2022/01/29 11:26:59;;;;;;;8.77;4.47;;;;;;;;;;6184410;23;20406;-77
2022/01/29 11:29:33;;;;;;;6.95;3.95;;;;;;;;;;6190398;23;20017;-78
2022/01/29 11:55:59;;;;;;;8.15;3.53;;;;;;;;;;6202544;22;20031;-92
2022/01/29 12:01:50;;;;;;;7.30;2.92;;;;;;;;;;6202226;23;20025;-91
2022/01/29 12:05:10;;;;;;;6.43;3.35;;;;;;;;;;6212391;23;20028;-91
2022/01/29 12:08:06;;;;;;;6.65;3.25;;;;;;;;;;6211720;23;20024;-91
2022/01/29 12:10:37;;;;;;;6.00;2.60;;;;;;;;;;6212305;23;20048;-91
2022/01/29 12:13:13;;;;;;;5.28;3.00;;;;;;;;;;6211580;23;20028;-91
2022/01/29 12:15:40;;;;;;;5.00;2.40;;;;;;;;;;6210292;23;20027;-91
2022/01/29 12:18:30;;;;;;;5.78;2.58;;;;;;;;;;6210191;23;20707;-91
2022/01/29 12:21:08;;;;;;;7.65;2.53;;;;;;;;;;6211400;23;20012;-90
2022/01/29 12:23:52;;;;;;;5.95;2.67;;;;;;;;;;6185334;23;20519;-90
2022/01/29 12:26:50;;;;;;;6.70;2.67;;;;;;;;;;6185006;23;20100;-91
2022/01/29 12:29:33;;;;;;;6.65;2.33;;;;;;;;;;6213010;23;20095;-91
2022/01/29 12:32:18;;;;;;;5.03;2.47;;;;;;;;;;6213455;23;20508;-91
2022/01/29 12:35:03;;;;;;;4.75;2.20;;;;;;;;;;6212709;23;20341;-89
2022/01/29 12:37:53;;;;;;;5.78;2.72;;;;;;;;;;6213261;23;20125;-90
2022/01/29 12:40:28;;;;;;;3.45;1.88;;;;;;;;;;6150767;23;20053;-90
2022/01/29 12:43:16;;;;;;;5.45;1.80;;;;;;;;;;6150897;23;20060;-91
2022/01/29 12:45:57;;;;;;;4.30;2.15;;;;;;;;;;6149184;23;20021;-91
2022/01/29 12:54:51;;;;;;;10.50;3.63;;;;;;;;;;6212373;23;20021;-77
2022/01/29 13:00:40;;;;;;;4.00;1.90;;;;;;;;;;6118065;23;20029;-77
2022/01/29 13:03:39;;;;;;;6.00;2.45;;;;;;;;;;6121175;23;20075;-78
2022/01/29 13:06:37;;;;;;;4.18;2.03;;;;;;;;;;6118520;23;20014;-76
2022/01/29 13:09:35;;;;;;;3.58;2.15;;;;;;;;;;6119540;23;20056;-77
2022/01/29 13:12:27;;;;;;;4.63;2.20;;;;;;;;;;6119344;23;20097;-78
2022/01/29 13:14:56;;;;;;;7.07;3.65;;;;;;;;;;6118949;23;20020;-76
2022/01/29 13:17:23;;;;;;;6.25;2.65;;;;;;;;;;6118074;23;20092;-75
2022/01/29 13:19:50;;;;;;;4.35;2.50;;;;;;;;;;6117407;23;20499;-76
2022/01/29 13:22:17;;;;;;;5.60;2.72;;;;;;;;;;6118833;23;20596;-76
2022/01/29 13:24:46;;;;;;;6.68;3.15;;;;;;;;;;6118965;23;20021;-76
2022/01/29 13:27:13;;;;;;;6.88;3.45;;;;;;;;;;6118638;23;20022;-76
2022/01/29 13:29:43;;;;;;;6.65;3.75;;;;;;;;;;6119105;23;20017;-76
2022/01/29 13:32:13;;;;;;;6.68;2.72;;;;;;;;;;6118852;23;20053;-76
2022/01/29 13:34:40;;;;;;;8.65;3.75;;;;;;;;;;6118954;23;20053;-76
2022/01/29 13:37:32;;;;;;;6.07;3.83;;;;;;;;;;6164231;23;20445;-76
2022/01/29 13:39:58;;;;;;;5.28;3.05;;;;;;;;;;6210089;23;20048;-76
2022/01/29 13:42:34;;;;;;;6.03;3.30;;;;;;;;;;6211460;23;20025;-76
2022/01/29 13:45:12;;;;;;;4.82;2.95;;;;;;;;;;6211085;23;20020;-75
2022/01/29 13:47:59;;;;;;;5.32;3.00;;;;;;;;;;6210918;23;20017;-76
2022/01/29 13:50:28;;;;;;;6.05;3.05;;;;;;;;;;6212359;23;20025;-77
2022/01/29 13:53:09;;;;;;;6.75;3.10;;;;;;;;;;6211884;23;20020;-77
2022/01/29 13:55:37;;;;;;;5.43;2.35;;;;;;;;;;6211951;23;20020;-76
2022/01/29 13:58:05;;;;;;;3.80;2.13;;;;;;;;;;6212216;23;20017;-77
2022/01/29 14:01:04;;;;;;;5.18;2.47;;;;;;;;;;6210045;23;20043;-76
2022/01/29 14:03:49;;;;;;;5.22;2.70;;;;;;;;;;6210054;23;20016;-76
2022/01/29 14:06:31;;;;;;;6.07;2.50;;;;;;;;;;6209365;23;20067;-76
2022/01/29 14:09:22;;;;;;;6.68;3.25;;;;;;;;;;6208465;23;20743;-76
2022/01/29 14:12:09;;;;;;;5.20;2.83;;;;;;;;;;6209021;23;20027;-76
2022/01/29 14:14:47;;;;;;;5.95;2.10;;;;;;;;;;6210290;23;20043;-76
2022/01/29 14:17:18;;;;;;;6.25;2.03;;;;;;;;;;6209188;23;20020;-76
2022/01/29 14:19:46;;;;;;;4.25;2.08;;;;;;;;;;6210360;23;20016;-76
2022/01/29 14:22:13;;;;;;;4.30;1.80;;;;;;;;;;6209751;23;20052;-76
2022/01/29 14:24:41;;;;;;;5.47;2.45;;;;;;;;;;6210384;23;20051;-76
2022/01/29 14:27:08;;;;;;;3.63;1.83;;;;;;;;;;6210183;23;20346;-76
2022/01/29 14:29:36;;;;;;;6.43;1.90;;;;;;;;;;6209832;23;20298;-76
2022/01/29 14:32:04;;;;;;;5.30;2.00;;;;;;;;;;6207598;23;20052;-77
2022/01/29 14:34:34;;;;;;;4.90;2.03;;;;;;;;;;6214267;23;20021;-80
2022/01/29 14:37:01;;;;;;;3.83;1.40;;;;;;;;;;6215636;23;20024;-78
2022/01/29 14:49:52;;;;;;;3.08;1.40;;;;;;;;;;5893488;24;20021;-76
2022/01/29 14:55:42;;;;;;;2.38;1.30;;;;;;;;;;5892528;24;20609;-77
2022/01/29 15:02:08;;;;;;;2.78;1.50;;;;;;;;;;5887482;24;20036;-77
2022/01/29 15:18:12;;;;;;;2.28;1.05;;;;;;;;;;5940895;22;8269647;-91
2022/01/29 15:20:48;;;;;;;2.35;1.33;;;;;;;;;;6281022;22;20077;-90
2022/01/29 15:23:15;;;;;;;3.63;2.08;;;;;;;;;;6280182;22;20737;-91
2022/01/29 15:25:45;;;;;;;2.92;1.30;;;;;;;;;;6281272;22;20023;-89
2022/01/29 15:28:12;;;;;;;5.30;1.95;;;;;;;;;;6283366;22;20464;-91
2022/01/29 15:30:41;;;;;;;3.10;1.33;;;;;;;;;;6281926;22;20457;-90
2022/01/29 15:33:16;;;;;;;3.03;2.47;;;;;;;;;;6279860;22;20436;-91
2022/01/29 15:35:47;;;;;;;3.75;1.85;;;;;;;;;;6280499;22;20491;-90
2022/01/29 15:38:28;;;;;;;2.47;1.30;;;;;;;;;;6281933;22;20031;-91
2022/01/29 15:40:57;;;;;;;3.90;1.38;;;;;;;;;;6282992;22;20019;-89
2022/01/29 15:43:24;;;;;;;5.97;1.60;;;;;;;;;;6281677;22;20380;-90
2022/01/29 15:45:51;;;;;;;3.05;1.50;;;;;;;;;;6279622;22;20016;-88
2022/01/29 15:48:29;;;;;;;1.95;1.00;;;;;;;;;;6281887;22;20110;-91
2022/01/29 15:50:56;;;;;;;1.05;0.70;;;;;;;;;;6282934;22;20077;-91
2022/01/29 15:53:25;;;;;;;2.55;1.17;;;;;;;;;;6255722;22;20030;-90
2022/01/29 15:56:03;;;;;;;2.00;1.10;;;;;;;;;;6282480;22;20016;-91
2022/01/29 15:58:45;;;;;;;1.92;0.85;;;;;;;;;;6281458;22;20019;-91
2022/01/29 16:01:12;;;;;;;4.10;1.35;;;;;;;;;;6283729;22;20081;-90
2022/01/29 16:03:51;;;;;;;1.67;1.00;;;;;;;;;;6283223;22;20069;-90
2022/01/29 16:06:22;;;;;;;3.53;1.27;;;;;;;;;;6282314;22;20026;-90
2022/01/29 16:08:51;;;;;;;4.20;1.27;;;;;;;;;;6281896;22;20095;-90
2022/01/29 16:11:22;;;;;;;3.33;1.50;;;;;;;;;;6281707;22;20019;-91
2022/01/29 16:13:53;;;;;;;3.85;1.02;;;;;;;;;;6281634;22;20026;-90
2022/01/29 16:16:20;;;;;;;2.38;1.20;;;;;;;;;;6282530;22;20019;-91
2022/01/29 16:18:55;;;;;;;2.25;0.88;;;;;;;;;;6274432;22;20053;-91
2022/01/29 16:21:22;;;;;;;2.33;1.10;;;;;;;;;;6273730;22;20055;-89
2022/01/29 16:23:48;;;;;;;2.63;1.17;;;;;;;;;;6274580;22;20129;-90
2022/01/29 16:26:18;;;;;;;2.95;1.33;;;;;;;;;;6272440;22;20754;-90
2022/01/29 16:28:45;;;;;;;2.53;1.05;;;;;;;;;;6273911;22;20077;-90
2022/01/29 16:31:16;;;;;;;2.67;1.33;;;;;;;;;;6271501;22;20020;-90
2022/01/29 16:33:43;;;;;;;2.35;1.17;;;;;;;;;;6271805;22;20027;-91
2022/01/29 16:36:11;;;;;;;2.88;1.30;;;;;;;;;;6272718;22;20023;-90
2022/01/29 16:38:38;;;;;;;3.63;1.30;;;;;;;;;;6272920;22;20441;-89
2022/01/29 16:41:05;;;;;;;3.95;1.85;;;;;;;;;;6271598;22;20769;-91
2022/01/29 16:43:44;;;;;;;5.53;1.77;;;;;;;;;;6272213;22;20027;-90
2022/01/29 16:46:12;;;;;;;2.70;1.30;;;;;;;;;;6247997;22;20404;-90
2022/01/29 16:48:38;;;;;;;2.80;1.40;;;;;;;;;;6272875;22;20019;-90
2022/01/29 16:51:08;;;;;;;3.03;1.58;;;;;;;;;;6273167;22;20020;-90
2022/01/29 16:53:37;;;;;;;2.15;1.25;;;;;;;;;;6272606;22;20091;-89
2022/01/29 16:56:05;;;;;;;3.10;1.30;;;;;;;;;;6275619;22;20085;-89
2022/01/29 16:58:31;;;;;;;2.30;1.30;;;;;;;;;;6272515;22;20039;-90
2022/01/29 17:01:03;;;;;;;4.82;1.95;;;;;;;;;;6272348;22;20024;-90
2022/01/29 17:03:30;;;;;;;2.58;1.45;;;;;;;;;;6272119;22;20403;-89
2022/01/29 17:05:57;;;;;;;4.07;1.70;;;;;;;;;;6272981;22;20028;-88
2022/01/29 17:08:28;;;;;;;3.17;1.90;;;;;;;;;;6272488;22;20135;-89
2022/01/29 17:11:03;;;;;;;4.63;1.65;;;;;;;;;;6272798;22;20028;-89
2022/01/29 17:13:30;;;;;;;2.83;1.48;;;;;;;;;;6273998;22;20016;-90
2022/01/29 17:15:56;;;;;;;3.95;1.70;;;;;;;;;;6272583;22;20023;-89
2022/01/29 17:18:37;;;;;;;3.15;1.55;;;;;;;;;;6271309;22;20036;-90
2022/01/29 17:21:04;;;;;;;2.63;1.40;;;;;;;;;;6272069;22;20027;-90
2022/01/29 17:23:31;;;;;;;2.78;1.30;;;;;;;;;;6273304;22;20020;-90
2022/01/29 17:26:05;;;;;;;3.35;1.40;;;;;;;;;;6271403;22;20046;-89
2022/01/29 17:28:37;;;;;;;2.45;1.38;;;;;;;;;;6272255;22;20043;-89
2022/01/29 17:31:04;;;;;;;3.95;2.47;;;;;;;;;;6271420;22;20016;-89
2022/01/29 17:33:31;;;;;;;3.20;1.58;;;;;;;;;;6273209;22;20070;-89
2022/01/29 17:35:59;;;;;;;2.63;1.25;;;;;;;;;;6271814;22;20024;-90
2022/01/29 17:38:26;;;;;;;3.63;1.10;;;;;;;;;;6272329;22;20035;-89
2022/01/29 17:40:53;;;;;;;3.75;1.17;;;;;;;;;;6271223;22;20069;-89
2022/01/29 17:43:23;;;;;;;1.83;1.02;;;;;;;;;;6270783;22;20075;-89
2022/01/29 17:45:50;;;;;;;3.30;1.23;;;;;;;;;;6270377;22;20031;-88
2022/01/29 17:48:17;;;;;;;7.22;3.45;;;;;;;;;;6271512;22;20077;-90
2022/01/29 17:50:43;;;;;;;4.25;2.13;;;;;;;;;;6272367;22;20036;-88
2022/01/29 17:53:10;;;;;;;21.38;14.27;;;;;;;;;;6271211;22;20032;-89
2022/01/29 17:55:38;;;;;;;124.85;77.63;;;;;;;;;;6270090;22;20043;-89
2022/01/29 17:58:07;;;;;;;16.65;10.57;;;;;;;;;;6271317;22;20026;-91
2022/01/29 18:00:35;;;;;;;3.75;2.22;;;;;;;;;;6271732;22;20027;-90
2022/01/29 18:03:02;;;;;;;3.05;1.10;;;;;;;;;;6272263;22;20019;-90
2022/01/29 18:05:29;;;;;;;2.78;1.25;;;;;;;;;;6271276;22;20085;-89
2022/01/29 18:07:56;;;;;;;9.48;5.15;;;;;;;;;;6272451;22;20051;-89
2022/01/29 18:10:22;;;;;;;3.55;2.15;;;;;;;;;;6271978;22;20027;-89
2022/01/29 18:12:49;;;;;;;8.68;5.40;;;;;;;;;;6272058;22;20031;-91
2022/01/29 18:15:17;;;;;;;17.80;8.90;;;;;;;;;;6271102;22;20019;-90
2022/01/29 18:17:45;;;;;;;2.75;1.17;;;;;;;;;;6271431;22;20075;-90
2022/01/29 18:20:12;;;;;;;1.20;0.73;;;;;;;;;;6272038;22;20357;-90
2022/01/29 18:22:40;;;;;;;2.92;1.30;;;;;;;;;;6272592;22;20085;-89
2022/01/29 18:25:07;;;;;;;1.85;0.90;;;;;;;;;;6272013;22;20026;-90
2022/01/29 18:27:34;;;;;;;2.30;1.15;;;;;;;;;;6271541;22;20012;-91
2022/01/29 18:30:01;;;;;;;1.95;0.93;;;;;;;;;;6272501;22;20085;-89
2022/01/29 18:32:30;;;;;;;1.92;0.90;;;;;;;;;;6272048;22;20425;-89
2022/01/29 18:35:11;;;;;;;1.60;0.95;;;;;;;;;;6286150;22;20023;-88
2022/01/29 18:37:38;;;;;;;1.48;0.75;;;;;;;;;;6287979;22;20034;-89
2022/01/29 18:40:11;;;;;;;1.98;0.73;;;;;;;;;;6281041;22;20024;-90
2022/01/29 18:42:38;;;;;;;1.95;1.10;;;;;;;;;;6271809;22;20050;-89
2022/01/29 18:45:06;;;;;;;1.70;0.73;;;;;;;;;;6271493;22;20026;-89
2022/01/29 18:47:33;;;;;;;2.47;1.00;;;;;;;;;;6271589;22;20073;-89
2022/01/29 18:50:01;;;;;;;2.67;1.67;;;;;;;;;;6272787;22;20081;-88
2022/01/29 18:52:27;;;;;;;6.05;2.72;;;;;;;;;;6272608;22;20093;-89
2022/01/29 18:54:54;;;;;;;7.50;3.05;;;;;;;;;;6271818;22;20026;-89
2022/01/29 18:57:21;;;;;;;11.18;4.85;;;;;;;;;;6270836;22;20077;-90
2022/01/29 18:59:47;;;;;;;5.50;2.97;;;;;;;;;;6271121;22;20081;-90
2022/01/29 19:02:14;;;;;;;4.95;1.80;;;;;;;;;;6271781;22;20065;-88
2022/01/29 19:04:40;;;;;;;5.65;2.17;;;;;;;;;;6271235;22;20042;-88
2022/01/29 19:07:09;;;;;;;2.95;1.70;;;;;;;;;;6272347;22;20077;-88
2022/01/29 19:09:37;;;;;;;3.38;1.60;;;;;;;;;;6271223;22;20078;-88
2022/01/29 19:12:05;;;;;;;3.95;1.95;;;;;;;;;;6271555;22;20157;-89
2022/01/29 19:14:32;;;;;;;2.88;1.42;;;;;;;;;;6271048;22;20023;-88
2022/01/29 19:17:00;;;;;;;3.45;1.30;;;;;;;;;;6274654;22;20020;-90
2022/01/29 19:19:27;;;;;;;3.28;1.17;;;;;;;;;;6270664;22;20634;-89
2022/01/29 19:21:55;;;;;;;1.83;1.17;;;;;;;;;;6272932;22;20023;-90
2022/01/29 19:24:33;;;;;;;4.53;1.17;;;;;;;;;;6273734;22;20098;-89
2022/01/29 19:27:04;;;;;;;2.63;1.40;;;;;;;;;;6267616;22;20012;-89
2022/01/29 19:29:32;;;;;;;3.55;1.38;;;;;;;;;;6270110;22;20090;-88
2022/01/29 19:32:06;;;;;;;3.55;1.77;;;;;;;;;;6268010;22;20015;-88
2022/01/29 19:34:33;;;;;;;3.35;1.70;;;;;;;;;;6268991;22;20020;-88
2022/01/29 19:40:03;;;;;;;5.20;1.90;;;;;;;;;;6271852;22;20035;-88
2022/01/29 19:42:29;;;;;;;2.05;1.20;;;;;;;;;;6268470;22;20081;-88
2022/01/29 19:44:56;;;;;;;2.42;1.30;;;;;;;;;;6267523;22;20453;-88
2022/01/29 19:47:22;;;;;;;3.88;1.58;;;;;;;;;;6267291;22;20082;-88
2022/01/29 19:49:49;;;;;;;3.15;1.25;;;;;;;;;;6267823;22;20073;-88
2022/01/29 19:52:16;;;;;;;1.63;1.10;;;;;;;;;;6269651;22;20055;-86
2022/01/29 19:54:43;;;;;;;1.90;1.20;;;;;;;;;;6271141;22;20031;-87
2022/01/29 19:57:11;;;;;;;2.72;1.20;;;;;;;;;;6271065;22;20024;-88
2022/01/29 19:59:37;;;;;;;2.78;1.10;;;;;;;;;;6271321;22;20077;-88
2022/01/29 20:02:05;;;;;;;1.20;0.80;;;;;;;;;;6269829;22;20088;-88
2022/01/29 20:04:32;;;;;;;1.83;0.95;;;;;;;;;;6270948;22;20559;-89
2022/01/29 20:06:58;;;;;;;2.08;1.15;;;;;;;;;;6270249;22;20019;-87
2022/01/29 20:09:25;;;;;;;1.88;1.13;;;;;;;;;;6269543;22;20078;-88
2022/01/29 20:11:58;;;;;;;1.08;0.70;;;;;;;;;;6273652;22;20077;-88
2022/01/29 20:14:44;;;;;;;1.73;0.90;;;;;;;;;;6289111;22;20388;-89
2022/01/29 20:17:15;;;;;;;2.10;1.23;;;;;;;;;;6288473;22;20660;-88
2022/01/29 20:19:50;;;;;;;1.67;0.93;;;;;;;;;;6261185;22;20065;-89
2022/01/29 20:22:32;;;;;;;1.98;1.05;;;;;;;;;;6289346;22;20027;-87
2022/01/29 20:25:02;;;;;;;2.53;1.52;;;;;;;;;;6261820;22;20028;-88
2022/01/29 20:27:33;;;;;;;4.20;1.40;;;;;;;;;;6289190;22;20040;-89
2022/01/29 20:30:30;;;;;;;1.63;1.02;;;;;;;;;;6288753;22;20093;-88
2022/01/29 20:33:01;;;;;;;2.05;1.17;;;;;;;;;;6289902;22;20735;-89
2022/01/29 20:35:31;;;;;;;1.58;0.80;;;;;;;;;;6288981;22;20027;-89